Time;durP1;ratioP1;P1;durP2;ratioP2;P2;SDS_P1;SDS_P2;PMS_P1;PMS_P2;Temp;Humidity;BMP_temperature;BMP_pressure;BME280_temperature;BME280_humidity;BME280_pressure;Samples;Min_cycle;Max_cycle;Signal;HPM_P1;HPM_P2
2022/08/23 00:00:00;;;;;;;3.25;1.90;;;;;;;;;;6268803;22;20034;-87
2022/08/23 00:03:04;;;;;;;4.85;2.00;;;;;;;;;;6279618;22;20045;-87
2022/08/23 00:05:38;;;;;;;6.28;2.20;;;;;;;;;;6289678;22;20019;-87
2022/08/23 00:08:06;;;;;;;4.15;2.13;;;;;;;;;;6264571;22;20015;-88
2022/08/23 00:10:34;;;;;;;6.90;2.10;;;;;;;;;;6264406;22;20025;-88
2022/08/23 00:13:02;;;;;;;8.25;2.00;;;;;;;;;;6317043;22;20023;-87
2022/08/23 00:16:18;;;;;;;5.77;2.20;;;;;;;;;;6300305;22;20011;-87
2022/08/23 00:18:50;;;;;;;5.97;2.13;;;;;;;;;;6229902;22;20827;-87
2022/08/23 00:21:19;;;;;;;4.68;2.42;;;;;;;;;;6264391;22;20023;-87
2022/08/23 00:23:46;;;;;;;4.70;1.75;;;;;;;;;;6289149;22;20437;-87
2022/08/23 00:26:14;;;;;;;6.05;2.28;;;;;;;;;;6289117;22;20019;-87
2022/08/23 00:28:48;;;;;;;5.15;2.13;;;;;;;;;;6288806;22;20062;-87
2022/08/23 00:31:18;;;;;;;7.57;2.45;;;;;;;;;;6264022;22;20011;-87
2022/08/23 00:33:50;;;;;;;9.02;2.50;;;;;;;;;;6279306;22;20019;-87
2022/08/23 00:36:22;;;;;;;3.50;1.83;;;;;;;;;;6289891;22;20022;-88
2022/08/23 00:38:51;;;;;;;5.13;2.05;;;;;;;;;;6228750;22;20089;-88
2022/08/23 00:41:18;;;;;;;5.07;2.25;;;;;;;;;;6289558;22;20019;-88
2022/08/23 00:49:37;;;;;;;4.82;2.15;;;;;;;;;;6279052;22;20106;-88
2022/08/23 00:52:32;;;;;;;6.63;2.13;;;;;;;;;;6263870;22;20019;-88
2022/08/23 00:55:00;;;;;;;;;;;;;;;;;;6264926;22;20023;-88
2022/08/23 00:57:30;;;;;;;6.60;2.10;;;;;;;;;;6264516;22;20245;-88
2022/08/23 00:59:57;;;;;;;6.80;1.83;;;;;;;;;;6263906;22;20019;-88
2022/08/23 01:02:28;;;;;;;7.00;2.10;;;;;;;;;;6265466;22;20030;-87
2022/08/23 01:04:58;;;;;;;7.30;2.00;;;;;;;;;;6289705;22;20025;-88
2022/08/23 01:07:47;;;;;;;5.13;2.17;;;;;;;;;;6264985;22;20011;-88
2022/08/23 01:10:42;;;;;;;5.20;1.92;;;;;;;;;;6289188;22;20037;-88
2022/08/23 01:13:40;;;;;;;;;;;;;;;;;;6254349;22;20340;-87
2022/08/23 01:16:14;;;;;;;5.55;2.30;;;;;;;;;;6253372;22;20337;-87
2022/08/23 01:18:43;;;;;;;4.90;2.58;;;;;;;;;;6264353;22;20089;-87
2022/08/23 01:21:18;;;;;;;4.03;2.38;;;;;;;;;;6263164;22;20038;-87
2022/08/23 01:23:56;;;;;;;5.35;2.65;;;;;;;;;;6253580;22;20097;-88
2022/08/23 01:26:49;;;;;;;9.05;2.40;;;;;;;;;;6269060;22;20007;-88
2022/08/23 01:29:41;;;;;;;6.68;2.30;;;;;;;;;;6294912;22;20058;-88
2022/08/23 01:32:15;;;;;;;8.32;2.20;;;;;;;;;;6289344;22;20015;-88
2022/08/23 01:34:42;;;;;;;7.38;2.28;;;;;;;;;;6289013;22;20041;-87
2022/08/23 01:37:20;;;;;;;7.75;2.40;;;;;;;;;;6289122;22;20019;-86
2022/08/23 01:39:51;;;;;;;6.07;2.35;;;;;;;;;;6228592;22;20042;-87
2022/08/23 01:42:18;;;;;;;5.07;2.53;;;;;;;;;;6288306;22;20081;-88
2022/08/23 01:44:50;;;;;;;7.68;2.60;;;;;;;;;;6266773;22;20012;-88
2022/08/23 01:47:18;;;;;;;5.38;2.45;;;;;;;;;;6266077;22;20042;-88
2022/08/23 01:50:11;;;;;;;6.03;2.20;;;;;;;;;;6296823;22;20035;-88
2022/08/23 01:52:44;;;;;;;4.93;2.15;;;;;;;;;;6267226;22;20015;-88
2022/08/23 01:55:15;;;;;;;5.15;2.00;;;;;;;;;;6255065;22;20046;-88
2022/08/23 01:57:45;;;;;;;3.92;2.15;;;;;;;;;;6230263;22;20026;-88
2022/08/23 02:00:19;;;;;;;6.57;2.33;;;;;;;;;;6266142;22;20019;-88
2022/08/23 02:02:52;;;;;;;6.25;2.10;;;;;;;;;;6291214;22;20027;-86
2022/08/23 02:05:24;;;;;;;4.43;1.90;;;;;;;;;;6254329;22;20093;-87
2022/08/23 02:07:52;;;;;;;12.27;3.05;;;;;;;;;;6290366;22;20023;-87
2022/08/23 02:10:24;;;;;;;5.32;2.53;;;;;;;;;;6254361;22;20023;-87
2022/08/23 02:13:17;;;;;;;5.85;2.42;;;;;;;;;;6270841;22;20634;-87
2022/08/23 02:16:11;;;;;;;7.53;2.42;;;;;;;;;;6290165;22;20011;-87
2022/08/23 02:18:46;;;;;;;4.55;2.35;;;;;;;;;;6290312;22;20016;-87
2022/08/23 02:21:19;;;;;;;9.20;2.63;;;;;;;;;;6265779;22;20023;-87
2022/08/23 02:23:51;;;;;;;7.63;2.40;;;;;;;;;;6290462;22;20508;-87
2022/08/23 02:26:20;;;;;;;7.53;2.47;;;;;;;;;;6265422;22;20021;-87
2022/08/23 02:28:58;;;;;;;4.40;2.30;;;;;;;;;;6267543;22;20015;-87
2022/08/23 02:31:26;;;;;;;5.10;2.25;;;;;;;;;;6264940;22;20511;-87
2022/08/23 02:34:19;;;;;;;4.63;2.42;;;;;;;;;;6255019;22;20065;-86
2022/08/23 02:36:46;;;;;;;9.32;2.72;;;;;;;;;;6229155;22;20027;-87
2022/08/23 02:42:10;;;;;;;7.47;2.40;;;;;;;;;;6290921;22;20030;-87
2022/08/23 02:44:43;;;;;;;4.80;2.20;;;;;;;;;;6231293;22;20098;-87
2022/08/23 02:47:11;;;;;;;6.20;2.45;;;;;;;;;;6265030;22;20444;-87
2022/08/23 02:49:42;;;;;;;6.57;3.00;;;;;;;;;;6290412;22;20069;-87
2022/08/23 02:52:11;;;;;;;6.50;2.60;;;;;;;;;;6279689;22;20023;-87
2022/08/23 02:54:38;;;;;;;6.32;2.60;;;;;;;;;;6290360;22;20015;-87
2022/08/23 02:57:06;;;;;;;5.72;2.95;;;;;;;;;;6289495;22;20090;-87
2022/08/23 02:59:38;;;;;;;5.25;2.78;;;;;;;;;;6265565;22;20496;-87
2022/08/23 03:02:31;;;;;;;10.13;2.70;;;;;;;;;;6289559;22;20023;-87
2022/08/23 03:05:00;;;;;;;5.72;2.50;;;;;;;;;;6229868;22;20027;-87
2022/08/23 03:07:35;;;;;;;5.05;2.53;;;;;;;;;;6291858;22;20075;-87
2022/08/23 03:10:04;;;;;;;5.85;2.55;;;;;;;;;;6289949;22;20019;-87
2022/08/23 03:12:40;;;;;;;6.38;2.42;;;;;;;;;;6267038;22;20019;-87
2022/08/23 03:15:09;;;;;;;7.63;2.90;;;;;;;;;;6265006;22;20086;-87
2022/08/23 03:17:36;;;;;;;4.55;2.60;;;;;;;;;;6317054;22;20065;-87
2022/08/23 03:20:09;;;;;;;6.78;2.60;;;;;;;;;;6290019;22;20035;-87
2022/08/23 03:22:42;;;;;;;4.78;2.42;;;;;;;;;;6290960;22;20012;-88
2022/08/23 03:25:22;;;;;;;6.50;2.50;;;;;;;;;;6289781;22;20017;-87
2022/08/23 03:28:23;;;;;;;7.60;2.85;;;;;;;;;;6303121;22;20022;-87
2022/08/23 03:30:51;;;;;;;14.15;3.47;;;;;;;;;;6264016;22;20015;-87
2022/08/23 03:33:19;;;;;;;5.97;3.00;;;;;;;;;;6289994;22;20444;-87
2022/08/23 03:35:49;;;;;;;7.30;2.83;;;;;;;;;;6229085;22;20077;-87
2022/08/23 03:38:18;;;;;;;6.78;3.38;;;;;;;;;;6288782;22;20382;-87
2022/08/23 03:40:46;;;;;;;5.18;2.63;;;;;;;;;;6288609;22;20441;-87
2022/08/23 03:43:14;;;;;;;6.53;3.33;;;;;;;;;;6228858;22;20034;-87
2022/08/23 03:45:42;;;;;;;6.07;2.83;;;;;;;;;;6228083;22;20079;-87
2022/08/23 03:48:15;;;;;;;7.07;2.88;;;;;;;;;;6289231;22;20022;-87
2022/08/23 03:50:48;;;;;;;5.47;2.63;;;;;;;;;;6289636;22;20019;-87
2022/08/23 03:53:22;;;;;;;4.72;2.60;;;;;;;;;;6265630;22;20053;-88
2022/08/23 03:55:55;;;;;;;6.15;2.78;;;;;;;;;;6265598;22;20015;-89
2022/08/23 03:58:24;;;;;;;6.35;2.67;;;;;;;;;;6264832;22;20015;-88
2022/08/23 04:00:52;;;;;;;6.03;2.58;;;;;;;;;;6284348;22;20099;-88
2022/08/23 04:03:20;;;;;;;6.20;2.78;;;;;;;;;;6228762;22;20019;-87
2022/08/23 04:06:28;;;;;;;7.22;3.10;;;;;;;;;;6289562;22;20015;-86
2022/08/23 04:08:56;;;;;;;6.43;2.70;;;;;;;;;;6289456;22;20058;-87
2022/08/23 04:11:25;;;;;;;5.07;2.53;;;;;;;;;;6264327;22;20472;-87
2022/08/23 04:14:17;;;;;;;7.95;2.97;;;;;;;;;;6269887;22;20432;-88
2022/08/23 04:16:51;;;;;;;5.18;2.50;;;;;;;;;;6229808;22;20019;-88
2022/08/23 04:19:22;;;;;;;5.90;2.80;;;;;;;;;;6265381;22;20014;-88
2022/08/23 04:22:00;;;;;;;6.78;3.03;;;;;;;;;;6266968;22;20015;-88
2022/08/23 04:24:37;;;;;;;5.07;2.67;;;;;;;;;;6267262;22;20441;-88
2022/08/23 04:27:05;;;;;;;9.10;3.00;;;;;;;;;;6228738;22;20030;-88
2022/08/23 04:29:58;;;;;;;4.95;2.47;;;;;;;;;;6317050;22;20026;-89
2022/08/23 04:32:26;;;;;;;7.55;2.78;;;;;;;;;;6289785;22;20015;-87
2022/08/23 04:35:07;;;;;;;6.20;3.08;;;;;;;;;;6253880;22;20019;-88
2022/08/23 04:37:34;;;;;;;6.00;2.70;;;;;;;;;;6253985;22;20026;-89
2022/08/23 04:42:55;;;;;;;6.68;3.13;;;;;;;;;;6290171;22;20011;-87
2022/08/23 04:45:23;;;;;;;7.72;2.83;;;;;;;;;;6289935;22;20479;-89
2022/08/23 04:48:26;;;;;;;4.60;2.75;;;;;;;;;;6289569;22;20086;-88
2022/08/23 04:50:58;;;;;;;5.82;2.83;;;;;;;;;;6265309;22;20019;-89
2022/08/23 04:53:29;;;;;;;5.93;2.88;;;;;;;;;;6289980;22;20438;-86
2022/08/23 04:56:24;;;;;;;5.85;2.67;;;;;;;;;;6315510;22;20042;-84
2022/08/23 04:58:52;;;;;;;8.63;2.90;;;;;;;;;;6263687;22;20007;-84
2022/08/23 05:01:24;;;;;;;6.18;2.65;;;;;;;;;;6288227;22;20015;-84
2022/08/23 05:03:56;;;;;;;8.52;2.92;;;;;;;;;;6265110;22;20025;-86
2022/08/23 05:06:30;;;;;;;4.03;2.40;;;;;;;;;;6265360;22;20011;-87
2022/08/23 05:09:23;;;;;;;5.40;2.70;;;;;;;;;;6278265;22;20102;-87
2022/08/23 05:11:52;;;;;;;5.22;2.80;;;;;;;;;;6265006;22;20452;-87
2022/08/23 05:14:22;;;;;;;6.15;2.60;;;;;;;;;;6264193;22;20035;-84
2022/08/23 05:16:50;;;;;;;4.32;2.75;;;;;;;;;;6252561;22;20736;-84
2022/08/23 05:19:18;;;;;;;8.30;2.60;;;;;;;;;;6290759;22;20023;-85
2022/08/23 05:21:46;;;;;;;8.38;2.60;;;;;;;;;;6290840;22;20022;-84
2022/08/23 05:24:38;;;;;;;4.85;2.40;;;;;;;;;;6318023;22;20042;-84
2022/08/23 05:27:10;;;;;;;8.90;2.67;;;;;;;;;;6291450;22;20353;-85
2022/08/23 05:29:41;;;;;;;4.45;2.45;;;;;;;;;;6290412;22;20018;-84
2022/08/23 05:32:09;;;;;;;6.57;2.90;;;;;;;;;;6230281;22;20027;-86
2022/08/23 05:34:36;;;;;;;8.52;2.53;;;;;;;;;;6281318;22;20019;-85
2022/08/23 05:37:08;;;;;;;8.13;2.78;;;;;;;;;;6266571;22;20081;-86
2022/08/23 05:39:38;;;;;;;4.47;2.70;;;;;;;;;;6266715;22;20321;-86
2022/08/23 05:42:10;;;;;;;8.30;2.65;;;;;;;;;;6265471;22;20019;-86
2022/08/23 05:44:38;;;;;;;5.55;2.28;;;;;;;;;;6255529;22;20457;-86
2022/08/23 05:47:11;;;;;;;6.85;2.90;;;;;;;;;;6290528;22;20022;-87
2022/08/23 05:50:18;;;;;;;5.72;2.72;;;;;;;;;;6290650;22;20011;-87
2022/08/23 05:52:46;;;;;;;5.18;2.42;;;;;;;;;;6279358;22;20023;-87
2022/08/23 05:55:18;;;;;;;6.40;2.85;;;;;;;;;;6289099;22;20065;-86
2022/08/23 05:57:56;;;;;;;7.30;2.58;;;;;;;;;;6253793;22;20023;-86
2022/08/23 06:00:27;;;;;;;5.63;2.42;;;;;;;;;;6254541;22;20019;-87
2022/08/23 06:03:32;;;;;;;5.47;2.65;;;;;;;;;;6263136;22;20027;-87
2022/08/23 06:06:01;;;;;;;7.80;2.88;;;;;;;;;;6229435;22;20400;-87
2022/08/23 06:08:37;;;;;;;5.43;2.45;;;;;;;;;;6231037;22;20019;-87
2022/08/23 06:11:12;;;;;;;5.07;2.42;;;;;;;;;;6265267;22;20019;-87
2022/08/23 06:14:08;;;;;;;4.90;2.40;;;;;;;;;;6251743;22;20026;-86
2022/08/23 06:16:40;;;;;;;5.80;2.42;;;;;;;;;;6264982;22;20011;-85
2022/08/23 06:19:13;;;;;;;5.00;2.10;;;;;;;;;;6289918;22;20011;-86
2022/08/23 06:21:46;;;;;;;5.45;2.60;;;;;;;;;;6317668;22;20015;-86
2022/08/23 06:24:40;;;;;;;7.75;2.33;;;;;;;;;;6254558;22;20017;-86
2022/08/23 06:27:14;;;;;;;7.38;2.15;;;;;;;;;;6290643;22;20015;-86
2022/08/23 06:29:43;;;;;;;5.43;2.33;;;;;;;;;;6289390;22;20023;-87
2022/08/23 06:32:47;;;;;;;6.53;2.88;;;;;;;;;;6312907;22;20023;-86
2022/08/23 06:35:32;;;;;;;6.13;2.60;;;;;;;;;;6283819;22;20023;-88
2022/08/23 06:38:40;;;;;;;3.58;2.33;;;;;;;;;;6289437;22;20011;-87
2022/08/23 06:41:14;;;;;;;5.28;2.42;;;;;;;;;;6254487;22;20054;-87
2022/08/23 06:44:08;;;;;;;7.38;2.53;;;;;;;;;;6161072;23;20052;-87
2022/08/23 06:46:57;;;;;;;5.10;2.20;;;;;;;;;;6160651;23;20364;-86
2022/08/23 06:49:27;;;;;;;4.85;2.30;;;;;;;;;;6159432;23;20140;-85
2022/08/23 06:51:58;;;;;;;7.07;2.60;;;;;;;;;;6151050;23;20056;-86
2022/08/23 06:54:45;;;;;;;3.97;2.28;;;;;;;;;;6161846;23;20029;-86
2022/08/23 06:57:26;;;;;;;8.70;2.50;;;;;;;;;;6151664;23;20121;-85
2022/08/23 07:00:16;;;;;;;4.10;2.00;;;;;;;;;;6161326;23;20014;-85
2022/08/23 07:03:08;;;;;;;5.38;2.25;;;;;;;;;;6161049;23;20435;-86
2022/08/23 07:05:55;;;;;;;5.03;2.20;;;;;;;;;;6161784;23;20031;-86
2022/08/23 07:08:28;;;;;;;4.90;2.67;;;;;;;;;;6104469;23;20076;-86
2022/08/23 07:11:21;;;;;;;6.43;2.15;;;;;;;;;;6151957;23;20698;-87
2022/08/23 07:14:15;;;;;;;4.90;2.20;;;;;;;;;;6152137;23;20049;-86
2022/08/23 07:16:48;;;;;;;4.50;2.00;;;;;;;;;;6127212;23;20036;-86
2022/08/23 07:19:20;;;;;;;4.65;2.35;;;;;;;;;;6161297;23;20014;-86
2022/08/23 07:22:13;;;;;;;;;;;;;;;;;;6218414;22;20632;-86
2022/08/23 07:24:42;;;;;;;7.72;2.20;;;;;;;;;;6249581;22;19926;-86
2022/08/23 07:27:11;;;;;;;4.60;1.98;;;;;;;;;;6253575;22;20086;-86
2022/08/23 07:29:46;;;;;;;5.53;2.25;;;;;;;;;;6230874;22;20019;-86
2022/08/23 07:32:40;;;;;;;5.57;2.03;;;;;;;;;;6234296;22;20053;-87
2022/08/23 07:35:32;;;;;;;4.25;2.00;;;;;;;;;;6278625;22;20034;-86
2022/08/23 07:38:12;;;;;;;3.80;2.17;;;;;;;;;;6253421;22;20027;-86
2022/08/23 07:40:40;;;;;;;3.30;1.88;;;;;;;;;;6253315;22;20023;-86
2022/08/23 07:43:09;;;;;;;3.47;1.88;;;;;;;;;;6263690;22;20026;-86
2022/08/23 07:45:39;;;;;;;3.95;1.75;;;;;;;;;;6253152;22;20453;-86
2022/08/23 07:48:33;;;;;;;;;;;;;;;;;;6278332;22;20047;-86
2022/08/23 07:51:33;;;;;;;4.43;1.70;;;;;;;;;;6262991;22;19964;-86
2022/08/23 07:54:03;;;;;;;4.55;1.95;;;;;;;;;;6262838;22;20341;-86
2022/08/23 07:56:56;;;;;;;;;;;;;;;;;;6295011;22;20015;-86
2022/08/23 07:59:42;;;;;;;3.15;1.65;;;;;;;;;;6278261;22;19919;-86
2022/08/23 08:02:48;;;;;;;4.22;1.58;;;;;;;;;;6251662;22;20336;-86
2022/08/23 08:05:22;;;;;;;3.50;1.92;;;;;;;;;;6288791;22;20019;-86
2022/08/23 08:07:52;;;;;;;6.07;1.90;;;;;;;;;;6263560;22;20022;-86
2022/08/23 08:10:23;;;;;;;4.63;1.80;;;;;;;;;;6252857;22;20068;-86
2022/08/23 08:12:55;;;;;;;6.00;1.88;;;;;;;;;;6252344;22;20031;-86
2022/08/23 08:15:49;;;;;;;5.63;1.60;;;;;;;;;;6278233;22;20022;-87
2022/08/23 08:18:17;;;;;;;3.00;1.40;;;;;;;;;;6287779;22;20094;-87
2022/08/23 08:21:41;;;;;;;3.97;1.52;;;;;;;;;;6315139;22;20011;-87
2022/08/23 08:24:43;;;;;;;2.80;1.40;;;;;;;;;;6242995;22;20350;-86
2022/08/23 08:27:12;;;;;;;3.60;1.67;;;;;;;;;;6232347;22;20069;-87
2022/08/23 08:29:44;;;;;;;3.45;1.45;;;;;;;;;;6257759;22;20035;-87
2022/08/23 08:32:12;;;;;;;5.22;1.80;;;;;;;;;;6221472;22;20027;-87
2022/08/23 08:34:41;;;;;;;4.72;1.67;;;;;;;;;;6257415;22;20012;-87
2022/08/23 08:37:35;;;;;;;3.90;1.48;;;;;;;;;;6263621;22;20023;-87
2022/08/23 08:40:10;;;;;;;3.22;1.45;;;;;;;;;;6222676;22;20024;-86
2022/08/23 08:43:02;;;;;;;3.13;1.73;;;;;;;;;;6197888;22;20027;-87
2022/08/23 08:45:52;;;;;;;3.80;1.50;;;;;;;;;;6233173;22;20598;-86
2022/08/23 08:48:40;;;;;;;7.07;1.85;;;;;;;;;;6256559;22;20012;-87
2022/08/23 08:51:39;;;;;;;4.00;1.60;;;;;;;;;;6222088;22;20024;-87
2022/08/23 08:54:31;;;;;;;3.63;1.60;;;;;;;;;;6168113;23;20106;-87
2022/08/23 08:57:06;;;;;;;3.90;1.52;;;;;;;;;;6158339;23;20055;-87
2022/08/23 09:00:05;;;;;;;4.93;1.60;;;;;;;;;;6192877;23;20099;-87
2022/08/23 09:02:37;;;;;;;8.73;1.60;;;;;;;;;;6155971;23;20029;-86
2022/08/23 09:05:13;;;;;;;3.92;1.77;;;;;;;;;;6191549;23;20021;-87
2022/08/23 09:07:49;;;;;;;3.92;1.67;;;;;;;;;;6156786;23;20411;-87
2022/08/23 09:11:21;;;;;;;3.78;1.80;;;;;;;;;;6192061;23;20381;-87
2022/08/23 09:14:05;;;;;;;7.60;1.70;;;;;;;;;;6102312;23;20073;-87
2022/08/23 09:16:56;;;;;;;3.88;1.63;;;;;;;;;;6102151;23;20022;-87
2022/08/23 09:19:51;;;;;;;3.38;1.70;;;;;;;;;;6059243;23;20018;-87
2022/08/23 09:22:34;;;;;;;6.63;2.25;;;;;;;;;;6101680;23;20167;-86
2022/08/23 09:25:10;;;;;;;4.30;1.83;;;;;;;;;;6101272;23;20093;-86
2022/08/23 09:27:46;;;;;;;4.45;1.85;;;;;;;;;;6043952;23;20449;-86
2022/08/23 09:30:19;;;;;;;4.70;1.80;;;;;;;;;;6085103;23;20070;-86
2022/08/23 09:32:54;;;;;;;5.00;1.50;;;;;;;;;;6107100;23;20085;-87
2022/08/23 09:35:24;;;;;;;5.35;1.70;;;;;;;;;;6131711;23;20026;-87
2022/08/23 09:38:20;;;;;;;4.78;1.60;;;;;;;;;;6121804;23;20034;-86
2022/08/23 09:40:52;;;;;;;5.53;1.73;;;;;;;;;;6153375;23;20193;-86
2022/08/23 09:43:24;;;;;;;4.90;1.58;;;;;;;;;;6122696;23;20077;-87
2022/08/23 09:46:25;;;;;;;6.10;1.83;;;;;;;;;;6105943;23;20100;-87
2022/08/23 09:49:29;;;;;;;6.70;1.67;;;;;;;;;;6221834;22;20101;-87
2022/08/23 09:55:39;;;;;;;3.35;1.45;;;;;;;;;;6259412;22;20011;-87
2022/08/23 09:58:39;;;;;;;7.93;1.95;;;;;;;;;;6233540;22;20102;-87
2022/08/23 10:01:15;;;;;;;3.88;1.60;;;;;;;;;;6223153;22;20465;-86
2022/08/23 10:04:15;;;;;;;4.20;1.80;;;;;;;;;;6260187;22;20034;-86
2022/08/23 10:06:49;;;;;;;2.72;1.48;;;;;;;;;;6258642;22;20473;-87
2022/08/23 10:09:31;;;;;;;4.03;1.40;;;;;;;;;;6258136;22;20019;-86
2022/08/23 10:12:02;;;;;;;4.30;1.52;;;;;;;;;;6259049;22;20027;-86
2022/08/23 10:14:34;;;;;;;4.20;1.48;;;;;;;;;;6248942;22;20449;-87
2022/08/23 10:17:40;;;;;;;4.32;1.50;;;;;;;;;;6263644;22;20077;-87
2022/08/23 10:20:40;;;;;;;4.70;1.58;;;;;;;;;;6200085;22;20019;-87
2022/08/23 10:23:32;;;;;;;4.88;1.70;;;;;;;;;;6258950;22;20050;-87
2022/08/23 10:26:38;;;;;;;3.17;1.50;;;;;;;;;;6274440;22;20081;-87
2022/08/23 10:29:37;;;;;;;4.32;1.27;;;;;;;;;;6223858;22;20027;-87
2022/08/23 10:32:21;;;;;;;3.58;1.38;;;;;;;;;;6258459;22;20012;-87
2022/08/23 10:35:23;;;;;;;2.92;1.50;;;;;;;;;;6235565;22;20070;-87
2022/08/23 10:38:19;;;;;;;4.32;1.55;;;;;;;;;;6233670;22;20015;-87
2022/08/23 10:41:07;;;;;;;5.55;1.65;;;;;;;;;;6259039;22;20012;-87
2022/08/23 10:43:58;;;;;;;3.33;1.23;;;;;;;;;;6259225;22;20061;-87
2022/08/23 10:46:36;;;;;;;4.00;1.27;;;;;;;;;;6234869;22;20596;-87
2022/08/23 10:49:12;;;;;;;3.00;1.30;;;;;;;;;;6223414;22;20028;-87
2022/08/23 10:51:48;;;;;;;3.72;1.45;;;;;;;;;;6248083;22;20320;-87
2022/08/23 10:55:16;;;;;;;3.80;1.45;;;;;;;;;;6273337;22;20442;-86
2022/08/23 10:57:46;;;;;;;3.63;1.50;;;;;;;;;;6247257;22;20032;-86
2022/08/23 11:00:22;;;;;;;3.17;1.27;;;;;;;;;;6222573;22;20012;-86
2022/08/23 11:03:18;;;;;;;2.42;0.95;;;;;;;;;;6222136;22;20027;-86
2022/08/23 11:06:24;;;;;;;2.35;1.10;;;;;;;;;;6264016;22;20442;-86
2022/08/23 11:09:19;;;;;;;2.70;1.20;;;;;;;;;;6258118;22;20324;-86
2022/08/23 11:11:48;;;;;;;3.30;1.00;;;;;;;;;;6257637;22;20066;-86
2022/08/23 11:14:35;;;;;;;2.63;1.20;;;;;;;;;;6258406;22;20020;-86
2022/08/23 11:17:10;;;;;;;6.28;1.17;;;;;;;;;;6232989;22;20103;-87
2022/08/23 11:19:54;;;;;;;1.95;0.98;;;;;;;;;;6258299;22;20098;-87
2022/08/23 11:22:31;;;;;;;2.58;0.80;;;;;;;;;;6258478;22;20019;-86
2022/08/23 11:25:24;;;;;;;4.45;0.88;;;;;;;;;;6200226;22;20019;-86
2022/08/23 11:28:20;;;;;;;2.28;0.80;;;;;;;;;;6257990;22;20050;-86
2022/08/23 11:30:59;;;;;;;3.63;1.15;;;;;;;;;;6253951;22;20042;-87
2022/08/23 11:33:43;;;;;;;2.08;1.00;;;;;;;;;;6222669;22;20051;-86
2022/08/23 11:36:40;;;;;;;4.78;1.10;;;;;;;;;;6228092;22;20035;-86
2022/08/23 11:39:58;;;;;;;3.35;1.25;;;;;;;;;;6257952;22;20465;-85
2022/08/23 11:42:37;;;;;;;4.55;1.00;;;;;;;;;;6257335;22;20024;-87
2022/08/23 11:45:21;;;;;;;3.42;0.93;;;;;;;;;;6223349;22;20028;-88
2022/08/23 11:48:35;;;;;;;2.47;1.13;;;;;;;;;;6258017;22;20051;-87
2022/08/23 11:51:35;;;;;;;3.60;1.30;;;;;;;;;;6248336;22;20028;-88
2022/08/23 11:54:43;;;;;;;3.10;1.10;;;;;;;;;;6226708;22;20034;-87
2022/08/23 11:57:17;;;;;;;4.95;1.30;;;;;;;;;;6256804;22;20026;-87
2022/08/23 12:00:36;;;;;;;2.13;1.10;;;;;;;;;;6285196;22;20102;-87
2022/08/23 12:03:25;;;;;;;3.30;0.90;;;;;;;;;;6285075;22;20019;-87
2022/08/23 12:06:18;;;;;;;3.05;1.15;;;;;;;;;;6264320;22;20452;-86
2022/08/23 12:09:00;;;;;;;3.00;0.93;;;;;;;;;;6258295;22;20016;-87
2022/08/23 12:11:52;;;;;;;2.30;1.20;;;;;;;;;;6233173;22;20027;-87
2022/08/23 12:14:29;;;;;;;2.33;1.08;;;;;;;;;;6131401;23;20048;-87
2022/08/23 12:17:25;;;;;;;4.03;1.20;;;;;;;;;;6166439;23;20021;-87
2022/08/23 12:20:09;;;;;;;2.60;1.10;;;;;;;;;;6191546;23;20029;-87
2022/08/23 12:23:25;;;;;;;3.65;1.10;;;;;;;;;;6146511;23;20107;-87
2022/08/23 12:26:06;;;;;;;2.72;1.08;;;;;;;;;;6180142;23;20024;-86
2022/08/23 12:28:57;;;;;;;2.85;1.10;;;;;;;;;;6190576;23;20017;-86
2022/08/23 12:31:54;;;;;;;2.78;1.08;;;;;;;;;;6156088;23;20032;-87
2022/08/23 12:34:42;;;;;;;4.20;1.75;;;;;;;;;;6142246;23;20104;-86
2022/08/23 12:37:50;;;;;;;2.72;1.08;;;;;;;;;;6190632;23;20025;-87
2022/08/23 12:40:46;;;;;;;1.92;0.75;;;;;;;;;;6191162;23;20056;-87
2022/08/23 12:43:21;;;;;;;2.92;1.10;;;;;;;;;;6101595;23;20022;-87
2022/08/23 12:45:55;;;;;;;2.77;1.10;;;;;;;;;;6068704;23;20113;-87
2022/08/23 12:48:25;;;;;;;4.80;1.00;;;;;;;;;;6101912;23;20270;-87
2022/08/23 12:51:16;;;;;;;4.43;1.73;;;;;;;;;;6088347;23;20085;-87
2022/08/23 12:53:44;;;;;;;3.50;1.15;;;;;;;;;;6141880;23;20026;-86
2022/08/23 12:56:28;;;;;;;2.75;1.10;;;;;;;;;;6111148;23;20038;-86
2022/08/23 12:59:03;;;;;;;2.90;1.17;;;;;;;;;;6096754;23;20034;-86
2022/08/23 13:01:54;;;;;;;2.88;1.33;;;;;;;;;;6106382;23;20089;-87
2022/08/23 13:04:22;;;;;;;5.55;1.08;;;;;;;;;;6106143;23;20025;-86
2022/08/23 13:07:22;;;;;;;3.95;1.20;;;;;;;;;;6097104;23;20030;-87
2022/08/23 13:10:15;;;;;;;3.38;1.13;;;;;;;;;;6097092;23;20037;-87
2022/08/23 13:12:48;;;;;;;3.60;1.00;;;;;;;;;;6145975;23;20642;-87
2022/08/23 13:15:56;;;;;;;3.25;1.00;;;;;;;;;;6131271;23;20591;-87
2022/08/23 13:18:46;;;;;;;4.47;1.30;;;;;;;;;;6107327;23;20018;-87
2022/08/23 13:21:30;;;;;;;2.13;0.80;;;;;;;;;;6247234;22;20024;-87
2022/08/23 13:24:38;;;;;;;4.13;1.25;;;;;;;;;;6284193;22;20319;-87
2022/08/23 13:27:21;;;;;;;3.10;1.15;;;;;;;;;;6198187;22;20062;-87
2022/08/23 13:30:18;;;;;;;2.50;1.08;;;;;;;;;;6247332;22;20047;-86
2022/08/23 13:33:34;;;;;;;5.65;1.13;;;;;;;;;;6272509;22;20016;-87
2022/08/23 13:36:26;;;;;;;3.92;1.00;;;;;;;;;;6221350;22;20484;-87
2022/08/23 13:39:06;;;;;;;2.92;1.08;;;;;;;;;;6249001;22;20055;-87
2022/08/23 13:41:48;;;;;;;4.25;1.00;;;;;;;;;;6224155;22;20019;-87
2022/08/23 13:44:20;;;;;;;4.30;1.33;;;;;;;;;;6223913;22;20058;-87
2022/08/23 13:46:48;;;;;;;2.50;1.20;;;;;;;;;;6248765;22;20027;-87
2022/08/23 13:49:26;;;;;;;3.42;1.20;;;;;;;;;;6259696;22;20070;-87
2022/08/23 13:52:16;;;;;;;4.70;1.10;;;;;;;;;;6286052;22;20385;-87
2022/08/23 13:55:12;;;;;;;3.33;1.05;;;;;;;;;;6265275;22;20428;-88
2022/08/23 13:57:46;;;;;;;2.42;1.00;;;;;;;;;;6200856;22;20351;-88
2022/08/23 14:00:19;;;;;;;2.55;1.00;;;;;;;;;;6257885;22;20019;-88
2022/08/23 14:02:49;;;;;;;4.68;1.40;;;;;;;;;;6223733;22;20503;-88
2022/08/23 14:05:20;;;;;;;2.63;1.10;;;;;;;;;;6259097;22;20015;-87
2022/08/23 14:07:52;;;;;;;6.05;1.02;;;;;;;;;;6235706;22;20023;-87
2022/08/23 14:10:21;;;;;;;3.35;1.20;;;;;;;;;;6259217;22;20481;-87
2022/08/23 14:12:52;;;;;;;2.10;1.20;;;;;;;;;;6258313;22;20023;-88
2022/08/23 14:15:24;;;;;;;3.05;1.08;;;;;;;;;;6285720;22;20023;-88
2022/08/23 14:18:14;;;;;;;3.00;1.13;;;;;;;;;;6225691;22;20020;-88
2022/08/23 14:20:42;;;;;;;3.88;1.10;;;;;;;;;;6223635;22;20034;-88
2022/08/23 14:23:18;;;;;;;3.45;1.10;;;;;;;;;;6258927;22;20369;-88
2022/08/23 14:25:50;;;;;;;2.67;1.10;;;;;;;;;;6284153;22;20019;-87
2022/08/23 14:28:17;;;;;;;5.03;1.13;;;;;;;;;;6258780;22;20026;-88
2022/08/23 14:30:46;;;;;;;3.08;1.20;;;;;;;;;;6258695;22;20026;-88
2022/08/23 14:33:14;;;;;;;4.47;1.17;;;;;;;;;;6258900;22;20015;-87
2022/08/23 14:35:43;;;;;;;2.17;1.05;;;;;;;;;;6247905;22;20027;-87
2022/08/23 14:38:12;;;;;;;2.20;0.98;;;;;;;;;;6258279;22;20022;-87
2022/08/23 14:40:49;;;;;;;2.92;0.90;;;;;;;;;;6223064;22;20047;-87
2022/08/23 14:43:25;;;;;;;4.60;1.40;;;;;;;;;;6258669;22;20019;-86
2022/08/23 14:45:56;;;;;;;4.38;1.40;;;;;;;;;;6258579;22;20023;-86
2022/08/23 14:48:28;;;;;;;5.07;1.30;;;;;;;;;;6284441;22;20624;-86
2022/08/23 14:50:57;;;;;;;3.67;1.25;;;;;;;;;;6258410;22;20012;-86
2022/08/23 14:53:27;;;;;;;2.53;1.20;;;;;;;;;;6223112;22;20023;-86
2022/08/23 14:56:08;;;;;;;5.30;1.27;;;;;;;;;;6259892;22;20046;-84
2022/08/23 14:59:00;;;;;;;3.03;1.05;;;;;;;;;;6222346;22;20391;-86
2022/08/23 15:01:29;;;;;;;3.45;1.13;;;;;;;;;;6258352;22;20217;-88
2022/08/23 15:04:23;;;;;;;3.30;1.13;;;;;;;;;;6260022;22;20087;-87
2022/08/23 15:07:03;;;;;;;5.38;1.33;;;;;;;;;;6247921;22;20149;-87
2022/08/23 15:10:37;;;;;;;2.53;1.20;;;;;;;;;;6285592;22;20015;-87
2022/08/23 15:13:24;;;;;;;4.25;1.00;;;;;;;;;;6227401;22;20114;-87
2022/08/23 15:16:27;;;;;;;4.07;1.10;;;;;;;;;;6285208;22;20019;-87
2022/08/23 15:19:01;;;;;;;2.87;1.20;;;;;;;;;;6248102;22;20027;-87
2022/08/23 15:21:28;;;;;;;3.58;1.25;;;;;;;;;;6198456;22;20335;-87
2022/08/23 15:23:56;;;;;;;7.10;1.40;;;;;;;;;;6222358;22;20089;-87
2022/08/23 15:26:29;;;;;;;2.67;1.10;;;;;;;;;;6285368;22;20071;-88
2022/08/23 15:33:06;;;;;;;2.92;1.13;;;;;;;;;;6161478;23;20146;-88
2022/08/23 15:35:45;;;;;;;4.53;1.40;;;;;;;;;;6103177;23;20053;-87
2022/08/23 15:38:21;;;;;;;3.88;1.40;;;;;;;;;;6152082;23;20029;-88
2022/08/23 15:40:50;;;;;;;4.38;1.10;;;;;;;;;;6138364;23;20036;-88
2022/08/23 15:43:20;;;;;;;4.40;1.70;;;;;;;;;;6102449;23;20061;-86
2022/08/23 15:45:49;;;;;;;3.08;1.40;;;;;;;;;;6136755;23;20033;-86
2022/08/23 15:48:44;;;;;;;3.03;1.35;;;;;;;;;;6160913;23;20026;-86
2022/08/23 15:51:14;;;;;;;3.25;1.55;;;;;;;;;;6137167;23;20053;-86
2022/08/23 15:53:40;;;;;;;3.40;1.20;;;;;;;;;;6161460;23;20028;-86
2022/08/23 15:56:40;;;;;;;3.95;1.50;;;;;;;;;;6141956;23;20037;-86
2022/08/23 15:59:13;;;;;;;4.07;1.30;;;;;;;;;;6135949;23;20035;-87
2022/08/23 16:01:41;;;;;;;3.40;1.40;;;;;;;;;;6124564;22;20030;-87
2022/08/23 16:04:09;;;;;;;3.20;1.40;;;;;;;;;;6257959;22;20019;-86
2022/08/23 16:06:38;;;;;;;4.55;1.40;;;;;;;;;;6257934;22;20031;-86
2022/08/23 16:09:13;;;;;;;4.57;1.50;;;;;;;;;;6233637;22;20022;-86
2022/08/23 16:11:42;;;;;;;3.88;1.58;;;;;;;;;;6257769;22;20019;-87
2022/08/23 16:14:11;;;;;;;3.20;1.50;;;;;;;;;;6272740;22;20015;-87
2022/08/23 16:16:42;;;;;;;3.08;1.27;;;;;;;;;;6242888;22;20020;-86
2022/08/23 16:19:11;;;;;;;4.57;1.67;;;;;;;;;;6246829;22;20039;-87
2022/08/23 16:21:40;;;;;;;5.60;1.13;;;;;;;;;;6247910;22;20354;-86